Tropical Cyclones
[Index]
Season 2021-2022 Tropical Cyclone KARIM Track Map
Season 2021-2022 Summaries: [BoM-AU]
<<- Previous TC | BoM 2021-2022 Season | Next TC ->>

click for intensity scale information  Lat/long Grid: Show Hide

 Date Labels: Show Hide

Bureau of Meteorology Tropical Cyclone Data

Name: KARIM

06 May 2022 12:00 UTC to 11 May 2022 06:00 UTC

    date/time    lat    long    hPa   cat  kts
2022-05-06 12    7.0    88.4    998         20          
2022-05-06 18    7.1    88.5    998         30          
2022-05-07 00    7.2    88.7    997         35          
2022-05-07 06    7.6    89.4    995    1    40          
2022-05-07 12    8.7    90.1    994    1    40          
2022-05-07 18    9.4    90.1    992    1    40          
2022-05-08 00   10.1    90.1    988    1    45          
2022-05-08 06   10.3    90.1    983    2    50          
2022-05-08 12   10.5    90.4    984    2    50          
2022-05-08 18   11.0    90.5    982    2    50          
2022-05-09 00   11.9    90.7    986    1    55          
2022-05-09 06   12.5    90.7    985    2    55          
2022-05-09 12   13.2    90.9    982    2    55          
2022-05-09 18   14.1    91.0    982    2    55          
2022-05-10 00   15.0    91.2    984    2    60          
2022-05-10 06   16.3    91.8    985    2    60          
2022-05-10 12   17.7    92.7    987    1    55          
2022-05-10 18   18.7    93.4    989    1    55          
2022-05-11 00   19.4    93.7    992    1    55          
2022-05-11 06   19.2    95.6    992    1    55          
Winds are 10-min average.

Tropical cyclone tracks developed by Michael Bath using data from the Bureau of Meteorology and Google Maps.


Document: tropical_cyclone_karim.htm
Updated: 23 June 2022
[Australian Severe Weather index] [Copyright Notice] [Email Contacts] [Search This Site] [Privacy Policy]


Main Index Home Page Stock Weather Photos Extreme Storms Discussion Storm News and Storm Chasing Reports Tropical Cyclones / Hurricanes / Typhoons Weather Data and Links Wild Fires / Bushfires Weather Observation Techniques Weather Picture Catalogue Tornado Pictures and Reports Stock Video Footage and DVDs for sale